sensor_id;sensor_type;location;lat;lon;timestamp;P1;durP1;ratioP1;P2;durP2;ratioP2
54412;SDS011;41533;51.390;0.074;2023-02-23T00:01:14;4.85;;;2.33;;
54412;SDS011;41533;51.390;0.074;2023-02-23T00:03:44;1.88;;;1.67;;
54412;SDS011;41533;51.390;0.074;2023-02-23T00:06:11;2.50;;;1.60;;
54412;SDS011;41533;51.390;0.074;2023-02-23T00:08:39;5.72;;;2.25;;
54412;SDS011;41533;51.390;0.074;2023-02-23T00:11:08;2.42;;;1.90;;
54412;SDS011;41533;51.390;0.074;2023-02-23T00:13:38;1.88;;;1.63;;
54412;SDS011;41533;51.390;0.074;2023-02-23T00:16:06;2.45;;;1.63;;
54412;SDS011;41533;51.390;0.074;2023-02-23T00:18:33;3.40;;;2.05;;
54412;SDS011;41533;51.390;0.074;2023-02-23T00:21:13;3.13;;;1.85;;
54412;SDS011;41533;51.390;0.074;2023-02-23T00:23:41;3.15;;;1.85;;
54412;SDS011;41533;51.390;0.074;2023-02-23T00:26:09;3.03;;;1.40;;
54412;SDS011;41533;51.390;0.074;2023-02-23T00:28:36;3.95;;;2.80;;
54412;SDS011;41533;51.390;0.074;2023-02-23T00:31:04;2.58;;;2.05;;
54412;SDS011;41533;51.390;0.074;2023-02-23T00:33:31;3.15;;;2.10;;
54412;SDS011;41533;51.390;0.074;2023-02-23T00:36:04;3.45;;;2.60;;
54412;SDS011;41533;51.390;0.074;2023-02-23T00:38:32;2.85;;;1.88;;
54412;SDS011;41533;51.390;0.074;2023-02-23T00:41:09;2.85;;;2.10;;
54412;SDS011;41533;51.390;0.074;2023-02-23T00:43:46;3.25;;;2.20;;
54412;SDS011;41533;51.390;0.074;2023-02-23T00:46:16;5.40;;;3.88;;
54412;SDS011;41533;51.390;0.074;2023-02-23T00:48:44;4.07;;;2.28;;
54412;SDS011;41533;51.390;0.074;2023-02-23T00:51:12;5.45;;;3.85;;
54412;SDS011;41533;51.390;0.074;2023-02-23T00:53:40;6.90;;;3.33;;
54412;SDS011;41533;51.390;0.074;2023-02-23T00:56:09;5.50;;;3.17;;
54412;SDS011;41533;51.390;0.074;2023-02-23T00:58:37;5.10;;;3.55;;
54412;SDS011;41533;51.390;0.074;2023-02-23T01:01:05;3.95;;;2.90;;
54412;SDS011;41533;51.390;0.074;2023-02-23T01:03:33;5.70;;;3.75;;
54412;SDS011;41533;51.390;0.074;2023-02-23T01:06:03;5.03;;;3.58;;
54412;SDS011;41533;51.390;0.074;2023-02-23T01:08:32;6.90;;;4.47;;
54412;SDS011;41533;51.390;0.074;2023-02-23T01:11:07;5.65;;;3.75;;
54412;SDS011;41533;51.390;0.074;2023-02-23T01:13:36;5.28;;;3.92;;
54412;SDS011;41533;51.390;0.074;2023-02-23T01:16:11;3.92;;;3.08;;
54412;SDS011;41533;51.390;0.074;2023-02-23T01:18:41;3.90;;;3.17;;
54412;SDS011;41533;51.390;0.074;2023-02-23T01:21:24;4.75;;;3.53;;
54412;SDS011;41533;51.390;0.074;2023-02-23T01:23:52;5.10;;;3.63;;
54412;SDS011;41533;51.390;0.074;2023-02-23T01:28:56;4.07;;;3.10;;
54412;SDS011;41533;51.390;0.074;2023-02-23T01:31:25;4.13;;;3.25;;
54412;SDS011;41533;51.390;0.074;2023-02-23T01:33:55;4.15;;;3.05;;
54412;SDS011;41533;51.390;0.074;2023-02-23T01:36:22;5.57;;;3.10;;
54412;SDS011;41533;51.390;0.074;2023-02-23T01:38:51;3.78;;;3.13;;
54412;SDS011;41533;51.390;0.074;2023-02-23T01:41:23;5.20;;;3.13;;
54412;SDS011;41533;51.390;0.074;2023-02-23T01:43:56;5.20;;;3.58;;
54412;SDS011;41533;51.390;0.074;2023-02-23T01:46:23;6.55;;;3.83;;
54412;SDS011;41533;51.390;0.074;2023-02-23T01:48:51;5.80;;;3.25;;
54412;SDS011;41533;51.390;0.074;2023-02-23T01:51:26;2.88;;;2.40;;
54412;SDS011;41533;51.390;0.074;2023-02-23T01:53:59;3.65;;;2.70;;
54412;SDS011;41533;51.390;0.074;2023-02-23T01:56:29;4.45;;;2.58;;
54412;SDS011;41533;51.390;0.074;2023-02-23T01:59:02;3.30;;;2.42;;
54412;SDS011;41533;51.390;0.074;2023-02-23T02:01:30;4.22;;;2.33;;
54412;SDS011;41533;51.390;0.074;2023-02-23T02:04:01;2.38;;;2.17;;
54412;SDS011;41533;51.390;0.074;2023-02-23T02:06:32;2.90;;;2.60;;
54412;SDS011;41533;51.390;0.074;2023-02-23T02:09:01;3.50;;;2.30;;
54412;SDS011;41533;51.390;0.074;2023-02-23T02:11:33;2.90;;;2.22;;
54412;SDS011;41533;51.390;0.074;2023-02-23T02:14:05;2.03;;;1.60;;
54412;SDS011;41533;51.390;0.074;2023-02-23T02:34:47;2.22;;;1.33;;
54412;SDS011;41533;51.390;0.074;2023-02-23T02:39:55;2.25;;;1.10;;
54412;SDS011;41533;51.390;0.074;2023-02-23T02:47:45;1.15;;;1.02;;
54412;SDS011;41533;51.390;0.074;2023-02-23T02:50:16;1.25;;;1.10;;
54412;SDS011;41533;51.390;0.074;2023-02-23T02:52:50;1.63;;;1.17;;
54412;SDS011;41533;51.390;0.074;2023-02-23T02:55:25;1.10;;;1.00;;
54412;SDS011;41533;51.390;0.074;2023-02-23T02:57:54;1.38;;;1.02;;
54412;SDS011;41533;51.390;0.074;2023-02-23T03:00:26;1.02;;;0.93;;
54412;SDS011;41533;51.390;0.074;2023-02-23T03:06:18;2.78;;;1.00;;
54412;SDS011;41533;51.390;0.074;2023-02-23T03:18:45;1.05;;;0.93;;
54412;SDS011;41533;51.390;0.074;2023-02-23T03:21:14;1.13;;;0.52;;
54412;SDS011;41533;51.390;0.074;2023-02-23T03:27:16;1.10;;;1.00;;
54412;SDS011;41533;51.390;0.074;2023-02-23T03:30:41;1.02;;;0.75;;
54412;SDS011;41533;51.390;0.074;2023-02-23T03:33:27;1.75;;;0.65;;
54412;SDS011;41533;51.390;0.074;2023-02-23T03:36:18;1.67;;;0.57;;
54412;SDS011;41533;51.390;0.074;2023-02-23T03:39:10;2.00;;;1.10;;
54412;SDS011;41533;51.390;0.074;2023-02-23T03:41:59;2.33;;;0.98;;
54412;SDS011;41533;51.390;0.074;2023-02-23T03:44:47;0.80;;;0.80;;
54412;SDS011;41533;51.390;0.074;2023-02-23T03:47:36;1.30;;;0.65;;
54412;SDS011;41533;51.390;0.074;2023-02-23T03:50:28;1.02;;;0.80;;
54412;SDS011;41533;51.390;0.074;2023-02-23T03:53:17;0.80;;;0.73;;
54412;SDS011;41533;51.390;0.074;2023-02-23T03:56:04;1.20;;;0.93;;
54412;SDS011;41533;51.390;0.074;2023-02-23T03:58:52;1.05;;;0.90;;
54412;SDS011;41533;51.390;0.074;2023-02-23T04:01:39;3.08;;;0.70;;
54412;SDS011;41533;51.390;0.074;2023-02-23T04:04:25;0.80;;;0.80;;
54412;SDS011;41533;51.390;0.074;2023-02-23T04:07:12;1.15;;;1.02;;
54412;SDS011;41533;51.390;0.074;2023-02-23T04:09:59;2.15;;;1.00;;
54412;SDS011;41533;51.390;0.074;2023-02-23T04:12:49;1.20;;;0.75;;
54412;SDS011;41533;51.390;0.074;2023-02-23T04:15:37;1.05;;;0.95;;
54412;SDS011;41533;51.390;0.074;2023-02-23T04:18:05;1.38;;;0.80;;
54412;SDS011;41533;51.390;0.074;2023-02-23T04:20:33;1.38;;;0.82;;
54412;SDS011;41533;51.390;0.074;2023-02-23T04:23:00;1.50;;;0.85;;
54412;SDS011;41533;51.390;0.074;2023-02-23T04:25:27;1.77;;;0.95;;
54412;SDS011;41533;51.390;0.074;2023-02-23T04:27:55;1.92;;;1.10;;
54412;SDS011;41533;51.390;0.074;2023-02-23T04:30:22;1.55;;;1.08;;
54412;SDS011;41533;51.390;0.074;2023-02-23T04:32:54;1.13;;;1.00;;
54412;SDS011;41533;51.390;0.074;2023-02-23T04:35:21;1.17;;;0.98;;
54412;SDS011;41533;51.390;0.074;2023-02-23T04:37:49;2.45;;;1.00;;
54412;SDS011;41533;51.390;0.074;2023-02-23T04:40:16;1.50;;;1.13;;
54412;SDS011;41533;51.390;0.074;2023-02-23T04:42:43;2.60;;;1.17;;
54412;SDS011;41533;51.390;0.074;2023-02-23T04:45:10;1.77;;;1.23;;
54412;SDS011;41533;51.390;0.074;2023-02-23T04:47:38;0.80;;;0.80;;
54412;SDS011;41533;51.390;0.074;2023-02-23T04:50:06;1.67;;;1.13;;
54412;SDS011;41533;51.390;0.074;2023-02-23T04:52:33;1.35;;;1.10;;
54412;SDS011;41533;51.390;0.074;2023-02-23T04:55:01;1.02;;;0.90;;
54412;SDS011;41533;51.390;0.074;2023-02-23T04:57:28;1.15;;;1.00;;
54412;SDS011;41533;51.390;0.074;2023-02-23T04:59:55;4.07;;;1.38;;
54412;SDS011;41533;51.390;0.074;2023-02-23T05:02:22;2.53;;;1.08;;
54412;SDS011;41533;51.390;0.074;2023-02-23T05:04:51;2.60;;;1.58;;
54412;SDS011;41533;51.390;0.074;2023-02-23T05:07:18;3.35;;;1.95;;
54412;SDS011;41533;51.390;0.074;2023-02-23T05:09:45;2.80;;;1.60;;
54412;SDS011;41533;51.390;0.074;2023-02-23T05:12:12;1.55;;;1.38;;
54412;SDS011;41533;51.390;0.074;2023-02-23T05:14:40;2.03;;;1.58;;
54412;SDS011;41533;51.390;0.074;2023-02-23T05:17:07;2.25;;;1.27;;
54412;SDS011;41533;51.390;0.074;2023-02-23T05:19:34;1.83;;;1.38;;
54412;SDS011;41533;51.390;0.074;2023-02-23T05:22:03;1.30;;;1.17;;
54412;SDS011;41533;51.390;0.074;2023-02-23T05:24:31;1.58;;;1.40;;
54412;SDS011;41533;51.390;0.074;2023-02-23T05:26:59;2.28;;;1.42;;
54412;SDS011;41533;51.390;0.074;2023-02-23T05:29:26;1.35;;;1.25;;
54412;SDS011;41533;51.390;0.074;2023-02-23T05:31:53;1.00;;;0.80;;
54412;SDS011;41533;51.390;0.074;2023-02-23T05:34:20;1.30;;;1.02;;
54412;SDS011;41533;51.390;0.074;2023-02-23T05:36:48;1.30;;;1.20;;
54412;SDS011;41533;51.390;0.074;2023-02-23T05:39:15;2.85;;;1.00;;
54412;SDS011;41533;51.390;0.074;2023-02-23T05:41:42;1.67;;;1.17;;
54412;SDS011;41533;51.390;0.074;2023-02-23T05:44:09;1.13;;;0.93;;
54412;SDS011;41533;51.390;0.074;2023-02-23T05:46:37;0.82;;;0.82;;
54412;SDS011;41533;51.390;0.074;2023-02-23T05:49:04;0.77;;;0.77;;
54412;SDS011;41533;51.390;0.074;2023-02-23T05:51:32;1.02;;;0.80;;
54412;SDS011;41533;51.390;0.074;2023-02-23T05:54:00;0.80;;;0.80;;
54412;SDS011;41533;51.390;0.074;2023-02-23T05:56:28;1.85;;;0.75;;
54412;SDS011;41533;51.390;0.074;2023-02-23T05:58:56;0.98;;;0.70;;
54412;SDS011;41533;51.390;0.074;2023-02-23T06:01:25;1.80;;;0.98;;
54412;SDS011;41533;51.390;0.074;2023-02-23T06:03:52;0.82;;;0.68;;
54412;SDS011;41533;51.390;0.074;2023-02-23T06:06:20;1.30;;;0.73;;
54412;SDS011;41533;51.390;0.074;2023-02-23T06:08:48;1.05;;;0.98;;
54412;SDS011;41533;51.390;0.074;2023-02-23T06:11:15;0.95;;;0.75;;
54412;SDS011;41533;51.390;0.074;2023-02-23T06:13:43;1.73;;;0.85;;
54412;SDS011;41533;51.390;0.074;2023-02-23T06:16:11;0.63;;;0.57;;
54412;SDS011;41533;51.390;0.074;2023-02-23T06:18:38;0.60;;;0.60;;
54412;SDS011;41533;51.390;0.074;2023-02-23T06:21:05;1.08;;;0.70;;
54412;SDS011;41533;51.390;0.074;2023-02-23T06:23:33;1.05;;;0.60;;
54412;SDS011;41533;51.390;0.074;2023-02-23T06:26:00;1.23;;;0.60;;
54412;SDS011;41533;51.390;0.074;2023-02-23T06:28:27;1.00;;;0.40;;
54412;SDS011;41533;51.390;0.074;2023-02-23T06:30:55;1.85;;;0.40;;
54412;SDS011;41533;51.390;0.074;2023-02-23T06:33:24;0.50;;;0.50;;
54412;SDS011;41533;51.390;0.074;2023-02-23T06:35:53;1.00;;;0.60;;
54412;SDS011;41533;51.390;0.074;2023-02-23T06:38:21;0.50;;;0.50;;
54412;SDS011;41533;51.390;0.074;2023-02-23T06:40:50;1.08;;;0.52;;
54412;SDS011;41533;51.390;0.074;2023-02-23T06:43:17;0.43;;;0.40;;
54412;SDS011;41533;51.390;0.074;2023-02-23T06:45:45;0.30;;;0.30;;
54412;SDS011;41533;51.390;0.074;2023-02-23T06:48:14;0.98;;;0.50;;
54412;SDS011;41533;51.390;0.074;2023-02-23T06:50:41;0.50;;;0.40;;
54412;SDS011;41533;51.390;0.074;2023-02-23T06:53:09;1.63;;;0.60;;
54412;SDS011;41533;51.390;0.074;2023-02-23T06:55:36;0.40;;;0.40;;
54412;SDS011;41533;51.390;0.074;2023-02-23T06:58:04;0.45;;;0.40;;
54412;SDS011;41533;51.390;0.074;2023-02-23T07:00:32;1.50;;;0.88;;
54412;SDS011;41533;51.390;0.074;2023-02-23T07:03:00;0.57;;;0.52;;
54412;SDS011;41533;51.390;0.074;2023-02-23T07:05:27;0.43;;;0.40;;
54412;SDS011;41533;51.390;0.074;2023-02-23T07:07:54;0.43;;;0.43;;
54412;SDS011;41533;51.390;0.074;2023-02-23T07:10:21;0.45;;;0.40;;
54412;SDS011;41533;51.390;0.074;2023-02-23T07:12:49;0.25;;;0.25;;
54412;SDS011;41533;51.390;0.074;2023-02-23T07:15:16;0.40;;;0.40;;
54412;SDS011;41533;51.390;0.074;2023-02-23T07:17:43;1.13;;;0.40;;
54412;SDS011;41533;51.390;0.074;2023-02-23T07:20:14;0.40;;;0.40;;
54412;SDS011;41533;51.390;0.074;2023-02-23T07:22:42;2.50;;;0.35;;
54412;SDS011;41533;51.390;0.074;2023-02-23T07:25:09;0.30;;;0.30;;
54412;SDS011;41533;51.390;0.074;2023-02-23T07:27:37;0.65;;;0.57;;
54412;SDS011;41533;51.390;0.074;2023-02-23T07:30:04;0.30;;;0.30;;
54412;SDS011;41533;51.390;0.074;2023-02-23T07:32:31;0.30;;;0.30;;
54412;SDS011;41533;51.390;0.074;2023-02-23T07:34:59;0.30;;;0.30;;
54412;SDS011;41533;51.390;0.074;2023-02-23T07:37:29;0.30;;;0.30;;
54412;SDS011;41533;51.390;0.074;2023-02-23T07:39:56;0.50;;;0.40;;
54412;SDS011;41533;51.390;0.074;2023-02-23T07:42:26;0.43;;;0.43;;
54412;SDS011;41533;51.390;0.074;2023-02-23T07:44:55;0.55;;;0.40;;
54412;SDS011;41533;51.390;0.074;2023-02-23T07:47:22;0.40;;;0.40;;
54412;SDS011;41533;51.390;0.074;2023-02-23T07:49:57;0.40;;;0.30;;
54412;SDS011;41533;51.390;0.074;2023-02-23T07:52:25;0.80;;;0.40;;
54412;SDS011;41533;51.390;0.074;2023-02-23T07:54:52;1.25;;;0.30;;
54412;SDS011;41533;51.390;0.074;2023-02-23T07:57:21;0.40;;;0.40;;
54412;SDS011;41533;51.390;0.074;2023-02-23T07:59:50;1.02;;;0.40;;
54412;SDS011;41533;51.390;0.074;2023-02-23T08:02:17;0.70;;;0.60;;
54412;SDS011;41533;51.390;0.074;2023-02-23T08:04:45;0.30;;;0.30;;
54412;SDS011;41533;51.390;0.074;2023-02-23T08:07:12;0.45;;;0.45;;
54412;SDS011;41533;51.390;0.074;2023-02-23T08:09:39;1.63;;;0.63;;
54412;SDS011;41533;51.390;0.074;2023-02-23T08:12:06;0.47;;;0.43;;
54412;SDS011;41533;51.390;0.074;2023-02-23T08:14:34;0.30;;;0.30;;
54412;SDS011;41533;51.390;0.074;2023-02-23T08:17:01;0.40;;;0.40;;
54412;SDS011;41533;51.390;0.074;2023-02-23T08:19:28;3.03;;;0.50;;
54412;SDS011;41533;51.390;0.074;2023-02-23T08:21:56;0.43;;;0.30;;
54412;SDS011;41533;51.390;0.074;2023-02-23T08:24:25;1.17;;;0.50;;
54412;SDS011;41533;51.390;0.074;2023-02-23T08:26:58;0.95;;;0.57;;
54412;SDS011;41533;51.390;0.074;2023-02-23T08:29:27;1.10;;;0.40;;
54412;SDS011;41533;51.390;0.074;2023-02-23T08:31:54;0.28;;;0.22;;
54412;SDS011;41533;51.390;0.074;2023-02-23T08:34:22;0.30;;;0.30;;
54412;SDS011;41533;51.390;0.074;2023-02-23T08:36:50;1.67;;;0.47;;
54412;SDS011;41533;51.390;0.074;2023-02-23T08:39:17;1.95;;;0.40;;
54412;SDS011;41533;51.390;0.074;2023-02-23T08:41:44;1.10;;;0.45;;
54412;SDS011;41533;51.390;0.074;2023-02-23T08:44:12;0.30;;;0.30;;
54412;SDS011;41533;51.390;0.074;2023-02-23T08:46:39;1.15;;;0.43;;
54412;SDS011;41533;51.390;0.074;2023-02-23T08:49:06;0.30;;;0.30;;
54412;SDS011;41533;51.390;0.074;2023-02-23T08:51:36;0.95;;;0.50;;
54412;SDS011;41533;51.390;0.074;2023-02-23T08:54:04;0.38;;;0.38;;
54412;SDS011;41533;51.390;0.074;2023-02-23T08:56:35;0.40;;;0.40;;
54412;SDS011;41533;51.390;0.074;2023-02-23T08:59:03;0.57;;;0.47;;
54412;SDS011;41533;51.390;0.074;2023-02-23T09:01:30;0.73;;;0.40;;
54412;SDS011;41533;51.390;0.074;2023-02-23T09:03:58;0.30;;;0.30;;
54412;SDS011;41533;51.390;0.074;2023-02-23T09:06:25;0.32;;;0.30;;
54412;SDS011;41533;51.390;0.074;2023-02-23T09:08:53;1.10;;;0.40;;
54412;SDS011;41533;51.390;0.074;2023-02-23T09:11:21;1.67;;;0.57;;
54412;SDS011;41533;51.390;0.074;2023-02-23T09:13:49;0.65;;;0.50;;
54412;SDS011;41533;51.390;0.074;2023-02-23T09:16:16;0.65;;;0.60;;
54412;SDS011;41533;51.390;0.074;2023-02-23T09:18:44;0.77;;;0.30;;
54412;SDS011;41533;51.390;0.074;2023-02-23T09:21:15;1.33;;;0.47;;
54412;SDS011;41533;51.390;0.074;2023-02-23T09:23:48;2.35;;;0.40;;
54412;SDS011;41533;51.390;0.074;2023-02-23T09:26:18;0.77;;;0.40;;
54412;SDS011;41533;51.390;0.074;2023-02-23T09:28:46;0.43;;;0.35;;
54412;SDS011;41533;51.390;0.074;2023-02-23T09:31:15;1.75;;;0.40;;
54412;SDS011;41533;51.390;0.074;2023-02-23T09:33:43;1.77;;;0.60;;
54412;SDS011;41533;51.390;0.074;2023-02-23T09:36:11;0.40;;;0.40;;
54412;SDS011;41533;51.390;0.074;2023-02-23T09:38:42;0.20;;;0.20;;
54412;SDS011;41533;51.390;0.074;2023-02-23T09:49:18;1.48;;;0.52;;
54412;SDS011;41533;51.390;0.074;2023-02-23T09:54:14;0.95;;;0.38;;
54412;SDS011;41533;51.390;0.074;2023-02-23T09:56:44;1.88;;;0.45;;
54412;SDS011;41533;51.390;0.074;2023-02-23T09:59:13;1.85;;;0.40;;
54412;SDS011;41533;51.390;0.074;2023-02-23T10:04:22;0.50;;;0.50;;
54412;SDS011;41533;51.390;0.074;2023-02-23T10:07:00;1.25;;;0.70;;
54412;SDS011;41533;51.390;0.074;2023-02-23T10:12:02;0.88;;;0.38;;
54412;SDS011;41533;51.390;0.074;2023-02-23T10:17:08;2.83;;;0.40;;
54412;SDS011;41533;51.390;0.074;2023-02-23T10:19:43;0.63;;;0.52;;
54412;SDS011;41533;51.390;0.074;2023-02-23T10:22:13;1.65;;;0.73;;
54412;SDS011;41533;51.390;0.074;2023-02-23T10:24:42;0.35;;;0.30;;
54412;SDS011;41533;51.390;0.074;2023-02-23T10:27:14;1.73;;;0.60;;
54412;SDS011;41533;51.390;0.074;2023-02-23T10:29:53;0.40;;;0.40;;
54412;SDS011;41533;51.390;0.074;2023-02-23T10:32:37;0.93;;;0.43;;
54412;SDS011;41533;51.390;0.074;2023-02-23T10:35:12;0.75;;;0.35;;
54412;SDS011;41533;51.390;0.074;2023-02-23T10:37:40;1.42;;;0.80;;
54412;SDS011;41533;51.390;0.074;2023-02-23T10:40:43;2.15;;;0.70;;
54412;SDS011;41533;51.390;0.074;2023-02-23T10:43:05;0.80;;;0.35;;
54412;SDS011;41533;51.390;0.074;2023-02-23T10:45:33;1.60;;;0.77;;
54412;SDS011;41533;51.390;0.074;2023-02-23T10:48:10;3.05;;;0.77;;
54412;SDS011;41533;51.390;0.074;2023-02-23T10:50:42;2.40;;;0.55;;
54412;SDS011;41533;51.390;0.074;2023-02-23T10:53:12;0.93;;;0.45;;
54412;SDS011;41533;51.390;0.074;2023-02-23T10:55:43;1.52;;;0.70;;
54412;SDS011;41533;51.390;0.074;2023-02-23T10:58:13;0.73;;;0.40;;
54412;SDS011;41533;51.390;0.074;2023-02-23T11:01:04;2.15;;;0.57;;
54412;SDS011;41533;51.390;0.074;2023-02-23T11:05:59;1.35;;;0.55;;
54412;SDS011;41533;51.390;0.074;2023-02-23T11:08:34;2.45;;;0.60;;
54412;SDS011;41533;51.390;0.074;2023-02-23T11:13:46;1.65;;;0.60;;
54412;SDS011;41533;51.390;0.074;2023-02-23T11:19:02;3.20;;;0.63;;
54412;SDS011;41533;51.390;0.074;2023-02-23T11:21:34;0.65;;;0.45;;
54412;SDS011;41533;51.390;0.074;2023-02-23T11:26:37;2.42;;;0.70;;
54412;SDS011;41533;51.390;0.074;2023-02-23T11:29:12;0.38;;;0.38;;
54412;SDS011;41533;51.390;0.074;2023-02-23T11:34:09;2.40;;;0.77;;
54412;SDS011;41533;51.390;0.074;2023-02-23T11:36:45;3.63;;;0.80;;
54412;SDS011;41533;51.390;0.074;2023-02-23T11:39:24;2.67;;;0.70;;
54412;SDS011;41533;51.390;0.074;2023-02-23T11:44:37;2.28;;;0.70;;
54412;SDS011;41533;51.390;0.074;2023-02-23T11:47:04;3.72;;;1.30;;
54412;SDS011;41533;51.390;0.074;2023-02-23T11:49:32;2.03;;;0.60;;
54412;SDS011;41533;51.390;0.074;2023-02-23T11:52:02;1.80;;;0.77;;
54412;SDS011;41533;51.390;0.074;2023-02-23T11:54:38;4.10;;;0.98;;
54412;SDS011;41533;51.390;0.074;2023-02-23T11:57:07;2.22;;;0.73;;
54412;SDS011;41533;51.390;0.074;2023-02-23T11:59:36;1.25;;;0.70;;
54412;SDS011;41533;51.390;0.074;2023-02-23T12:02:05;5.05;;;1.33;;
54412;SDS011;41533;51.390;0.074;2023-02-23T12:04:45;3.42;;;0.95;;
54412;SDS011;41533;51.390;0.074;2023-02-23T12:17:55;2.05;;;0.82;;
54412;SDS011;41533;51.390;0.074;2023-02-23T12:20:24;3.03;;;1.00;;
54412;SDS011;41533;51.390;0.074;2023-02-23T12:23:16;2.13;;;1.00;;
54412;SDS011;41533;51.390;0.074;2023-02-23T12:25:53;2.42;;;0.60;;
54412;SDS011;41533;51.390;0.074;2023-02-23T12:28:26;4.15;;;0.93;;
54412;SDS011;41533;51.390;0.074;2023-02-23T12:31:01;1.35;;;0.65;;
54412;SDS011;41533;51.390;0.074;2023-02-23T12:33:41;3.17;;;0.90;;
54412;SDS011;41533;51.390;0.074;2023-02-23T12:36:22;1.13;;;0.60;;
54412;SDS011;41533;51.390;0.074;2023-02-23T12:39:14;0.77;;;0.75;;
54412;SDS011;41533;51.390;0.074;2023-02-23T12:41:47;0.50;;;0.50;;
54412;SDS011;41533;51.390;0.074;2023-02-23T12:44:29;1.55;;;0.82;;
54412;SDS011;41533;51.390;0.074;2023-02-23T12:47:00;1.35;;;0.82;;
54412;SDS011;41533;51.390;0.074;2023-02-23T12:49:38;5.00;;;0.98;;
54412;SDS011;41533;51.390;0.074;2023-02-23T12:52:10;2.10;;;0.90;;
54412;SDS011;41533;51.390;0.074;2023-02-23T12:54:42;2.63;;;0.73;;
54412;SDS011;41533;51.390;0.074;2023-02-23T12:57:21;1.45;;;0.93;;
54412;SDS011;41533;51.390;0.074;2023-02-23T13:07:51;0.90;;;0.55;;
54412;SDS011;41533;51.390;0.074;2023-02-23T13:21:26;0.45;;;0.43;;
54412;SDS011;41533;51.390;0.074;2023-02-23T13:26:27;0.40;;;0.40;;
54412;SDS011;41533;51.390;0.074;2023-02-23T13:29:01;3.65;;;0.93;;
54412;SDS011;41533;51.390;0.074;2023-02-23T13:31:36;1.88;;;1.00;;
54412;SDS011;41533;51.390;0.074;2023-02-23T13:34:05;1.70;;;0.80;;
54412;SDS011;41533;51.390;0.074;2023-02-23T13:36:35;1.30;;;0.73;;
54412;SDS011;41533;51.390;0.074;2023-02-23T13:41:51;2.70;;;0.90;;
54412;SDS011;41533;51.390;0.074;2023-02-23T13:44:33;1.13;;;0.73;;
54412;SDS011;41533;51.390;0.074;2023-02-23T13:49:37;3.22;;;0.85;;
54412;SDS011;41533;51.390;0.074;2023-02-23T13:52:19;1.30;;;0.60;;
54412;SDS011;41533;51.390;0.074;2023-02-23T13:54:51;1.08;;;0.57;;
54412;SDS011;41533;51.390;0.074;2023-02-23T13:57:22;1.95;;;0.60;;
54412;SDS011;41533;51.390;0.074;2023-02-23T13:59:50;3.38;;;0.60;;
54412;SDS011;41533;51.390;0.074;2023-02-23T14:02:34;1.25;;;0.45;;
54412;SDS011;41533;51.390;0.074;2023-02-23T14:07:30;1.13;;;0.50;;
54412;SDS011;41533;51.390;0.074;2023-02-23T14:09:59;0.73;;;0.65;;
54412;SDS011;41533;51.390;0.074;2023-02-23T14:17:56;0.85;;;0.70;;
54412;SDS011;41533;51.390;0.074;2023-02-23T14:23:14;1.13;;;0.50;;
54412;SDS011;41533;51.390;0.074;2023-02-23T14:31:01;0.82;;;0.70;;
54412;SDS011;41533;51.390;0.074;2023-02-23T14:33:33;2.17;;;0.93;;
54412;SDS011;41533;51.390;0.074;2023-02-23T14:36:02;2.75;;;1.00;;
54412;SDS011;41533;51.390;0.074;2023-02-23T14:41:37;2.92;;;1.13;;
54412;SDS011;41533;51.390;0.074;2023-02-23T14:46:49;4.43;;;1.13;;
54412;SDS011;41533;51.390;0.074;2023-02-23T14:49:18;1.77;;;0.85;;
54412;SDS011;41533;51.390;0.074;2023-02-23T14:51:47;2.33;;;0.70;;
54412;SDS011;41533;51.390;0.074;2023-02-23T14:56:49;2.05;;;0.85;;
54412;SDS011;41533;51.390;0.074;2023-02-23T14:59:18;2.38;;;0.70;;
54412;SDS011;41533;51.390;0.074;2023-02-23T15:01:47;3.42;;;0.85;;
54412;SDS011;41533;51.390;0.074;2023-02-23T15:04:16;0.70;;;0.70;;
54412;SDS011;41533;51.390;0.074;2023-02-23T15:06:44;1.20;;;0.60;;
54412;SDS011;41533;51.390;0.074;2023-02-23T15:12:11;2.55;;;0.63;;
54412;SDS011;41533;51.390;0.074;2023-02-23T15:14:41;1.15;;;0.85;;
54412;SDS011;41533;51.390;0.074;2023-02-23T15:17:13;2.63;;;0.70;;
54412;SDS011;41533;51.390;0.074;2023-02-23T15:19:41;3.85;;;0.52;;
54412;SDS011;41533;51.390;0.074;2023-02-23T15:22:13;2.90;;;0.80;;
54412;SDS011;41533;51.390;0.074;2023-02-23T15:24:46;0.88;;;0.65;;
54412;SDS011;41533;51.390;0.074;2023-02-23T15:27:15;1.30;;;0.90;;
54412;SDS011;41533;51.390;0.074;2023-02-23T15:29:42;3.33;;;0.80;;
54412;SDS011;41533;51.390;0.074;2023-02-23T15:32:11;1.77;;;0.95;;
54412;SDS011;41533;51.390;0.074;2023-02-23T15:34:41;4.50;;;1.00;;
54412;SDS011;41533;51.390;0.074;2023-02-23T15:39:49;2.05;;;0.82;;
54412;SDS011;41533;51.390;0.074;2023-02-23T15:42:24;0.63;;;0.50;;
54412;SDS011;41533;51.390;0.074;2023-02-23T15:44:53;1.00;;;0.60;;
54412;SDS011;41533;51.390;0.074;2023-02-23T15:47:22;1.25;;;0.60;;
54412;SDS011;41533;51.390;0.074;2023-02-23T15:50:10;4.27;;;0.60;;
54412;SDS011;41533;51.390;0.074;2023-02-23T15:52:44;1.33;;;0.90;;
54412;SDS011;41533;51.390;0.074;2023-02-23T15:55:14;1.38;;;0.47;;
54412;SDS011;41533;51.390;0.074;2023-02-23T15:57:50;1.27;;;0.60;;
54412;SDS011;41533;51.390;0.074;2023-02-23T16:00:20;2.15;;;0.80;;
54412;SDS011;41533;51.390;0.074;2023-02-23T16:03:00;1.67;;;0.77;;
54412;SDS011;41533;51.390;0.074;2023-02-23T16:05:29;2.00;;;0.77;;
54412;SDS011;41533;51.390;0.074;2023-02-23T16:08:18;1.83;;;1.35;;
54412;SDS011;41533;51.390;0.074;2023-02-23T16:10:54;1.95;;;0.70;;
54412;SDS011;41533;51.390;0.074;2023-02-23T16:13:26;2.88;;;1.00;;
54412;SDS011;41533;51.390;0.074;2023-02-23T16:15:55;3.40;;;1.30;;
54412;SDS011;41533;51.390;0.074;2023-02-23T16:18:27;4.88;;;1.08;;
54412;SDS011;41533;51.390;0.074;2023-02-23T16:20:58;1.45;;;0.70;;
54412;SDS011;41533;51.390;0.074;2023-02-23T16:26:00;4.22;;;0.70;;
54412;SDS011;41533;51.390;0.074;2023-02-23T16:28:28;2.33;;;1.10;;
54412;SDS011;41533;51.390;0.074;2023-02-23T16:33:29;3.40;;;1.35;;
54412;SDS011;41533;51.390;0.074;2023-02-23T16:38:37;2.58;;;0.77;;
54412;SDS011;41533;51.390;0.074;2023-02-23T16:41:05;2.17;;;0.65;;
54412;SDS011;41533;51.390;0.074;2023-02-23T16:43:36;0.65;;;0.60;;
54412;SDS011;41533;51.390;0.074;2023-02-23T16:46:03;2.15;;;1.35;;
54412;SDS011;41533;51.390;0.074;2023-02-23T16:48:32;2.25;;;0.75;;
54412;SDS011;41533;51.390;0.074;2023-02-23T16:50:59;3.88;;;0.93;;
54412;SDS011;41533;51.390;0.074;2023-02-23T16:53:27;1.08;;;0.70;;
54412;SDS011;41533;51.390;0.074;2023-02-23T16:55:54;2.42;;;0.80;;
54412;SDS011;41533;51.390;0.074;2023-02-23T16:58:26;3.70;;;1.10;;
54412;SDS011;41533;51.390;0.074;2023-02-23T17:00:56;3.45;;;1.05;;
54412;SDS011;41533;51.390;0.074;2023-02-23T17:03:24;2.67;;;1.02;;
54412;SDS011;41533;51.390;0.074;2023-02-23T17:05:53;2.42;;;0.68;;
54412;SDS011;41533;51.390;0.074;2023-02-23T17:08:20;4.03;;;1.10;;
54412;SDS011;41533;51.390;0.074;2023-02-23T17:10:48;3.78;;;1.15;;
54412;SDS011;41533;51.390;0.074;2023-02-23T17:13:17;2.05;;;0.93;;
54412;SDS011;41533;51.390;0.074;2023-02-23T17:15:44;2.70;;;0.90;;
54412;SDS011;41533;51.390;0.074;2023-02-23T17:18:18;3.38;;;1.00;;
54412;SDS011;41533;51.390;0.074;2023-02-23T17:20:46;1.83;;;0.95;;
54412;SDS011;41533;51.390;0.074;2023-02-23T17:23:13;1.90;;;0.90;;
54412;SDS011;41533;51.390;0.074;2023-02-23T17:25:40;6.75;;;1.05;;
54412;SDS011;41533;51.390;0.074;2023-02-23T17:28:08;3.13;;;0.73;;
54412;SDS011;41533;51.390;0.074;2023-02-23T17:30:35;1.58;;;1.00;;
54412;SDS011;41533;51.390;0.074;2023-02-23T17:33:04;1.85;;;0.82;;
54412;SDS011;41533;51.390;0.074;2023-02-23T17:35:32;3.08;;;1.40;;
54412;SDS011;41533;51.390;0.074;2023-02-23T17:38:04;3.83;;;1.02;;
54412;SDS011;41533;51.390;0.074;2023-02-23T17:40:31;2.33;;;1.10;;
54412;SDS011;41533;51.390;0.074;2023-02-23T17:43:03;4.75;;;1.38;;
54412;SDS011;41533;51.390;0.074;2023-02-23T17:45:32;3.45;;;1.13;;